Time;durP1;ratioP1;P1;durP2;ratioP2;P2;SDS_P1;SDS_P2;PMS_P1;PMS_P2;Temp;Humidity;BMP_temperature;BMP_pressure;BME280_temperature;BME280_humidity;BME280_pressure;Samples;Min_cycle;Max_cycle;Signal;HPM_P1;HPM_P2
2021/10/27 00:00:39;;;;;;;37.45;20.02;;;;;;;3.26;86.41;100976.79;1801541;79;21080;-75
2021/10/27 00:03:06;;;;;;;37.73;19.80;;;;;;;3.24;86.04;100974.60;1764973;81;21556;-77
2021/10/27 00:05:32;;;;;;;44.23;20.50;;;;;;;3.20;86.65;100977.64;1787100;80;21760;-75
2021/10/27 00:07:59;;;;;;;40.98;20.60;;;;;;;3.21;86.67;100978.50;1812258;79;21531;-75
2021/10/27 00:10:25;;;;;;;39.18;20.65;;;;;;;3.19;86.72;100975.02;1757171;79;21058;-77
2021/10/27 00:12:52;;;;;;;39.27;21.07;;;;;;;3.15;87.05;100971.09;1765505;81;21550;-76
2021/10/27 00:15:20;;;;;;;39.20;20.45;;;;;;;3.15;87.37;100971.50;1781459;80;21090;-76
2021/10/27 00:17:48;;;;;;;34.98;20.08;;;;;;;3.11;87.60;100962.82;1776413;80;21971;-76
2021/10/27 00:20:14;;;;;;;35.33;18.95;;;;;;;3.08;88.21;100961.51;1767623;80;21043;-73
2021/10/27 00:22:41;;;;;;;39.13;20.70;;;;;;;3.10;88.56;100970.17;1739469;81;21117;-82
2021/10/27 00:25:08;;;;;;;36.77;20.00;;;;;;;3.08;88.51;100962.81;1757990;81;21580;-75
2021/10/27 00:27:36;;;;;;;39.80;19.73;;;;;;;3.06;89.01;100970.14;1727646;82;21069;-75
2021/10/27 00:30:04;;;;;;;39.35;20.70;;;;;;;3.03;89.65;100960.58;1727585;83;22055;-74
2021/10/27 00:32:31;;;;;;;42.38;21.57;;;;;;;3.02;90.08;100960.16;1758130;81;21544;-74
2021/10/27 00:34:57;;;;;;;35.78;19.32;;;;;;;2.97;90.58;100958.36;1727742;83;21600;-75
2021/10/27 00:37:23;;;;;;;39.53;20.72;;;;;;;2.99;91.18;100960.14;1727645;82;21085;-75
2021/10/27 00:39:50;;;;;;;37.05;20.95;;;;;;;3.00;91.58;100963.61;1757806;81;21165;-75
2021/10/27 00:42:17;;;;;;;41.30;21.95;;;;;;;2.99;91.16;100965.34;1760987;81;21004;-74
2021/10/27 00:44:43;;;;;;;33.92;19.50;;;;;;;2.98;91.52;100960.98;1760093;81;21509;-74
2021/10/27 00:47:12;;;;;;;42.33;21.37;;;;;;;2.98;91.45;100962.28;1757825;81;21058;-75
2021/10/27 00:49:43;;;;;;;37.75;20.80;;;;;;;2.94;91.68;100954.01;1758007;81;21497;-74
2021/10/27 00:52:13;;;;;;;37.63;20.97;;;;;;;2.92;91.68;100953.13;1727689;81;21643;-75
2021/10/27 00:54:42;;;;;;;38.88;21.07;;;;;;;2.90;91.93;100954.87;1727821;83;22173;-74
2021/10/27 00:57:08;;;;;;;37.98;20.72;;;;;;;2.88;92.48;100950.08;1757718;81;21149;-74
2021/10/27 00:59:40;;;;;;;36.35;20.62;;;;;;;2.86;92.74;100955.70;1726112;83;21611;-74
2021/10/27 01:02:06;;;;;;;36.48;18.37;;;;;;;2.89;93.02;100957.02;1727493;83;21053;-73
2021/10/27 01:04:34;;;;;;;39.10;19.55;;;;;;;2.88;93.12;100948.78;1738451;81;21042;-73
2021/10/27 01:07:02;;;;;;;34.15;19.12;;;;;;;2.87;93.27;100947.88;1788835;80;21157;-73
2021/10/27 01:09:28;;;;;;;29.00;17.85;;;;;;;2.84;93.53;100943.11;1788957;80;21525;-73
2021/10/27 01:11:55;;;;;;;39.23;19.48;;;;;;;2.83;94.23;100945.25;1788899;80;21110;-78
2021/10/27 01:14:21;;;;;;;28.83;17.42;;;;;;;2.82;94.16;100940.92;1789401;80;21043;-77
2021/10/27 01:16:48;;;;;;;32.23;18.90;;;;;;;2.81;94.73;100939.19;1788976;80;21038;-78
2021/10/27 01:19:14;;;;;;;32.80;19.05;;;;;;;2.81;94.89;100945.70;1806790;78;21015;-78
2021/10/27 01:21:41;;;;;;;32.98;18.23;;;;;;;2.82;94.87;100942.22;1815505;79;21078;-77
2021/10/27 01:24:08;;;;;;;32.20;18.00;;;;;;;2.82;94.81;100943.52;1799965;79;21743;-77
2021/10/27 01:26:35;;;;;;;32.95;18.73;;;;;;;2.81;94.89;100937.89;1787470;80;21037;-75
2021/10/27 01:29:01;;;;;;;36.48;18.98;;;;;;;2.81;95.51;100940.49;1782759;80;22376;-75
2021/10/27 01:31:28;;;;;;;34.65;19.50;;;;;;;2.79;95.24;100933.97;1788554;80;21271;-76
2021/10/27 01:33:55;;;;;;;37.17;20.15;;;;;;;2.80;95.45;100932.23;1781745;80;21530;-75
2021/10/27 01:36:22;;;;;;;36.28;19.70;;;;;;;2.80;95.98;100933.53;1786775;80;21040;-73
2021/10/27 01:38:49;;;;;;;33.10;18.95;;;;;;;2.79;95.69;100931.80;1781553;80;21047;-74
2021/10/27 01:41:16;;;;;;;40.78;18.12;;;;;;;2.77;95.87;100924.41;1786736;80;21053;-77
2021/10/27 01:43:50;;;;;;;41.53;21.07;;;;;;;2.73;96.03;100923.06;1781433;80;21120;-78
2021/10/27 01:46:16;;;;;;;36.95;21.40;;;;;;;2.72;96.03;100921.34;1784825;80;21037;-76
2021/10/27 01:48:43;;;;;;;39.53;21.12;;;;;;;2.70;95.96;100926.95;1765060;80;21595;-77
2021/10/27 01:51:10;;;;;;;35.60;19.35;;;;;;;2.68;96.22;100918.70;1786694;80;21104;-76
2021/10/27 01:53:37;;;;;;;37.58;18.80;;;;;;;2.65;96.77;100913.05;1763333;81;21535;-79
2021/10/27 01:56:04;;;;;;;31.73;18.23;;;;;;;2.66;96.81;100919.98;1786730;80;21113;-78
2021/10/27 01:58:30;;;;;;;38.85;20.08;;;;;;;2.64;96.86;100914.33;1769335;80;21061;-79
2021/10/27 02:00:57;;;;;;;37.53;19.80;;;;;;;2.60;97.37;100908.25;1777254;80;21077;-77
2021/10/27 02:03:23;;;;;;;39.25;20.52;;;;;;;2.59;97.87;100912.13;1777622;80;21041;-75
2021/10/27 02:05:50;;;;;;;38.73;21.62;;;;;;;2.59;98.23;100919.92;1782898;80;21681;-77
2021/10/27 02:08:17;;;;;;;39.70;21.50;;;;;;;2.59;98.58;100918.20;1785816;80;21802;-76
2021/10/27 02:10:45;;;;;;;34.10;19.60;;;;;;;2.57;98.60;100909.50;1799553;79;21030;-78
2021/10/27 02:13:11;;;;;;;42.75;23.90;;;;;;;2.56;98.82;100903.88;1799379;79;21073;-78
2021/10/27 02:15:37;;;;;;;40.60;22.77;;;;;;;2.56;98.86;100915.58;1799361;79;21042;-78
2021/10/27 02:18:04;;;;;;;38.15;22.13;;;;;;;2.53;98.98;100902.53;1798569;79;21010;-78
2021/10/27 02:20:31;;;;;;;44.48;24.65;;;;;;;2.52;99.38;100905.56;1798849;79;21138;-77
2021/10/27 02:22:57;;;;;;;42.88;24.37;;;;;;;2.51;99.54;100908.17;1798766;79;21034;-77
2021/10/27 02:25:24;;;;;;;44.33;22.93;;;;;;;2.52;99.70;100915.10;1798932;79;21618;-76
2021/10/27 02:27:52;;;;;;;39.13;23.85;;;;;;;2.53;99.84;100915.53;1798743;79;21050;-76
2021/10/27 02:30:19;;;;;;;39.42;22.48;;;;;;;2.51;99.89;100912.08;1799184;79;21572;-77
2021/10/27 02:32:47;;;;;;;41.33;23.47;;;;;;;2.48;99.77;100913.33;1798759;79;21147;-76
2021/10/27 02:35:13;;;;;;;40.85;22.35;;;;;;;2.46;100.00;100903.34;1799018;79;21077;-76
2021/10/27 02:37:39;;;;;;;45.58;22.65;;;;;;;2.44;100.00;100897.25;1798649;79;21023;-77
2021/10/27 02:40:08;;;;;;;41.73;22.45;;;;;;;2.43;100.00;100895.52;1798945;79;21324;-77
2021/10/27 02:42:39;;;;;;;39.48;21.00;;;;;;;2.43;100.00;100903.33;1798740;79;21286;-78
2021/10/27 02:45:09;;;;;;;34.75;20.68;;;;;;;2.39;100.00;100898.95;1798633;79;21127;-76
2021/10/27 02:47:36;;;;;;;41.43;22.33;;;;;;;2.35;100.00;100893.27;1798770;79;21031;-77
2021/10/27 02:50:05;;;;;;;38.30;22.00;;;;;;;2.38;100.00;100899.83;1798887;79;21046;-77
2021/10/27 02:52:31;;;;;;;38.73;23.30;;;;;;;2.37;100.00;100898.06;1798697;79;20987;-76
2021/10/27 02:54:58;;;;;;;37.85;22.35;;;;;;;2.37;100.00;100898.06;1799125;79;21105;-76
2021/10/27 02:57:25;;;;;;;44.70;23.73;;;;;;;2.37;100.00;100895.46;1798790;79;21581;-76
2021/10/27 02:59:51;;;;;;;41.98;23.30;;;;;;;2.35;100.00;100898.47;1800612;79;21056;-76
2021/10/27 03:02:18;;;;;;;44.93;23.52;;;;;;;2.33;100.00;100900.22;1802847;79;20975;-75
2021/10/27 03:04:44;;;;;;;37.08;21.45;;;;;;;2.31;100.00;100894.56;1799292;79;21102;-77
2021/10/27 03:07:11;;;;;;;33.70;20.15;;;;;;;2.33;100.00;100904.12;1798800;79;21097;-77
2021/10/27 03:09:37;;;;;;;40.48;21.52;;;;;;;2.26;100.00;100893.66;1798971;79;21096;-73
2021/10/27 03:12:06;;;;;;;42.93;23.95;;;;;;;2.27;100.00;100887.58;1798548;79;21061;-74
2021/10/27 03:14:32;;;;;;;41.02;23.30;;;;;;;2.28;100.00;100891.08;1798796;79;21037;-74
2021/10/27 03:16:59;;;;;;;39.75;22.85;;;;;;;2.25;100.00;100894.49;1798583;79;21550;-75
2021/10/27 03:19:26;;;;;;;42.00;23.70;;;;;;;2.25;100.00;100894.49;1783148;79;22106;-76
2021/10/27 03:21:52;;;;;;;41.10;22.05;;;;;;;2.25;100.00;100894.49;1765828;81;21087;-74
2021/10/27 03:24:19;;;;;;;37.63;21.93;;;;;;;2.22;100.00;100896.21;1766093;81;21003;-75
2021/10/27 03:26:46;;;;;;;40.25;22.82;;;;;;;2.20;100.00;100885.79;1766030;81;21574;-77
2021/10/27 03:29:13;;;;;;;42.45;21.27;;;;;;;2.21;100.00;100884.05;1766100;81;21019;-75
2021/10/27 03:31:39;;;;;;;46.00;24.12;;;;;;;2.18;100.00;100880.14;1766355;81;21024;-74
2021/10/27 03:34:06;;;;;;;46.85;24.98;;;;;;;2.17;100.00;100872.78;1765657;81;21129;-74
2021/10/27 03:36:32;;;;;;;49.50;27.00;;;;;;;2.19;100.00;100873.66;1760962;81;21096;-74
2021/10/27 03:38:59;;;;;;;49.70;26.10;;;;;;;2.19;100.00;100871.07;1745647;81;21536;-75
2021/10/27 03:41:25;;;;;;;48.83;23.70;;;;;;;2.19;100.00;100871.07;1743373;79;21096;-73
2021/10/27 03:43:51;;;;;;;44.90;24.23;;;;;;;2.17;100.00;100870.18;1752658;79;21108;-76
2021/10/27 03:46:18;;;;;;;47.27;24.45;;;;;;;2.15;100.00;100873.19;1761564;81;21813;-77
2021/10/27 03:48:44;;;;;;;41.48;23.15;;;;;;;2.15;100.00;100865.39;1751563;81;21099;-79
2021/10/27 03:51:13;;;;;;;39.08;22.17;;;;;;;2.12;100.00;100864.08;1763129;81;21092;-85
2021/10/27 03:53:39;;;;;;;45.90;23.42;;;;;;;2.12;100.00;100861.48;1740347;81;21088;-84
2021/10/27 03:56:06;;;;;;;43.25;24.23;;;;;;;2.10;100.00;100865.79;1735510;82;21103;-77
2021/10/27 03:58:33;;;;;;;42.78;24.72;;;;;;;2.10;100.00;100863.19;1747043;81;21131;-69
2021/10/27 04:01:00;;;;;;;44.80;24.25;;;;;;;2.06;100.00;100864.02;1736915;81;21071;-66
2021/10/27 04:03:27;;;;;;;44.53;23.80;;;;;;;2.06;100.00;100864.02;1753164;81;21584;-71
2021/10/27 04:05:54;;;;;;;40.20;23.18;;;;;;;2.07;100.00;100867.03;1746984;80;21051;-68
2021/10/27 04:08:21;;;;;;;41.33;23.10;;;;;;;2.06;100.00;100862.27;1744076;82;21089;-68
2021/10/27 04:10:48;;;;;;;43.20;23.05;;;;;;;2.06;100.00;100861.41;1762073;81;21167;-69
2021/10/27 04:13:16;;;;;;;40.90;21.95;;;;;;;2.06;100.00;100861.41;1743922;81;21026;-68
2021/10/27 04:15:43;;;;;;;41.00;19.92;;;;;;;2.05;100.00;100859.69;1729336;81;21062;-66
2021/10/27 04:18:10;;;;;;;37.00;20.88;;;;;;;2.05;100.00;100859.69;1736214;82;21470;-66
2021/10/27 04:20:37;;;;;;;36.35;20.20;;;;;;;2.03;100.00;100862.26;1754124;81;21076;-65
2021/10/27 04:23:05;;;;;;;39.10;20.85;;;;;;;2.04;100.00;100860.52;1758356;81;22333;-65
2021/10/27 04:25:31;;;;;;;39.78;20.82;;;;;;;2.03;100.00;100862.69;1767054;80;21024;-66
2021/10/27 04:27:58;;;;;;;38.17;20.92;;;;;;;2.04;100.00;100857.48;1743939;81;21017;-66
2021/10/27 04:30:24;;;;;;;40.30;22.05;;;;;;;2.02;100.00;100853.14;1799402;78;21020;-67
2021/10/27 04:32:51;;;;;;;37.42;21.68;;;;;;;2.00;100.00;100856.14;1776730;79;21052;-66
2021/10/27 04:35:19;;;;;;;39.33;22.60;;;;;;;2.00;100.00;100856.14;1743349;81;21147;-66
2021/10/27 04:37:46;;;;;;;45.92;23.47;;;;;;;1.99;100.00;100859.62;1752370;80;21099;-66
2021/10/27 04:40:15;;;;;;;46.30;24.25;;;;;;;1.99;100.00;100860.48;1766771;80;21081;-68
2021/10/27 04:42:43;;;;;;;38.85;23.30;;;;;;;1.98;100.00;100857.86;1743895;82;21035;-65
2021/10/27 04:45:09;;;;;;;35.03;22.15;;;;;;;1.98;100.00;100857.86;1746588;81;21046;-66
2021/10/27 04:47:36;;;;;;;39.40;23.80;;;;;;;1.98;100.00;100860.45;1754223;80;21970;-65
2021/10/27 04:50:05;;;;;;;42.30;22.98;;;;;;;1.97;100.00;100861.32;1767376;81;21052;-66
2021/10/27 04:52:32;;;;;;;43.42;22.77;;;;;;;1.98;100.00;100851.36;1750847;80;21540;-68
2021/10/27 04:54:58;;;;;;;49.50;23.80;;;;;;;1.98;100.00;100858.75;1775378;78;21089;-66
2021/10/27 04:57:25;;;;;;;42.50;24.10;;;;;;;1.98;100.00;100858.75;1785430;79;21533;-66
2021/10/27 04:59:51;;;;;;;41.60;23.40;;;;;;;2.05;100.00;100873.97;1788775;78;21108;-67
2021/10/27 05:02:18;;;;;;;44.03;23.75;;;;;;;2.05;100.00;100873.97;1790181;78;21033;-67
2021/10/27 05:04:45;;;;;;;43.13;22.95;;;;;;;2.04;100.00;100864.42;1777440;79;21044;-67
2021/10/27 05:07:14;;;;;;;44.73;23.42;;;;;;;2.04;100.00;100873.52;1758341;80;21629;-67
2021/10/27 05:09:42;;;;;;;39.75;23.05;;;;;;;2.05;100.00;100870.08;1785634;78;21497;-66
2021/10/27 05:12:10;;;;;;;37.93;22.40;;;;;;;2.09;100.00;100871.82;1775424;80;21213;-68
2021/10/27 05:14:42;;;;;;;35.78;21.62;;;;;;;2.10;100.00;100868.38;1753482;81;21054;-67
2021/10/27 05:17:09;;;;;;;44.58;21.27;;;;;;;2.13;100.00;100869.70;1781359;80;21056;-68
2021/10/27 05:19:39;;;;;;;37.13;20.65;;;;;;;2.15;100.00;100866.69;1823381;78;20989;-67
2021/10/27 05:22:07;;;;;;;40.60;20.77;;;;;;;2.18;100.00;100873.20;1819983;78;21116;-67
2021/10/27 05:24:34;;;;;;;38.65;21.90;;;;;;;2.22;100.00;100878.88;1788436;78;21104;-66
2021/10/27 05:27:00;;;;;;;37.33;20.08;;;;;;;2.25;100.00;100875.00;1786641;78;21124;-65
2021/10/27 05:29:26;;;;;;;38.95;21.15;;;;;;;2.29;100.00;100880.67;1788080;78;21025;-65
2021/10/27 05:31:53;;;;;;;36.95;21.68;;;;;;;2.35;100.00;100881.58;1803864;78;21112;-66
2021/10/27 05:34:20;;;;;;;39.25;21.70;;;;;;;2.41;100.00;100884.24;1821333;78;21032;-67
2021/10/27 05:36:47;;;;;;;37.70;22.60;;;;;;;2.41;100.00;100884.24;1812232;78;21090;-65
2021/10/27 05:39:15;;;;;;;43.28;24.27;;;;;;;2.47;100.00;100877.80;1780286;79;21033;-66
2021/10/27 05:41:48;;;;;;;47.15;25.43;;;;;;;2.62;100.00;100884.43;1787136;78;21057;-66
2021/10/27 05:44:17;;;;;;;51.95;24.27;;;;;;;2.94;100.00;100882.45;1785839;79;21029;-65
2021/10/27 05:46:45;;;;;;;46.92;24.77;;;;;;;3.35;100.00;100880.52;1776204;79;21617;-66
2021/10/27 05:51:46;;;;;;;38.17;21.07;;;;;;;4.09;100.00;100872.91;1785361;78;21045;-65
2021/10/27 05:56:54;;;;;;;36.05;19.45;;;;;;;4.46;100.00;100878.16;1765681;80;21100;-65
2021/10/27 05:59:21;;;;;;;33.13;18.02;;;;;;;4.89;99.05;100879.43;1778509;79;21158;-65
2021/10/27 06:01:47;;;;;;;36.63;18.10;;;;;;;5.20;96.03;100883.72;1772860;79;21650;-66
2021/10/27 06:04:18;;;;;;;34.53;19.07;;;;;;;5.55;94.17;100881.41;1778480;79;21631;-67
2021/10/27 06:06:45;;;;;;;40.43;19.07;;;;;;;5.90;92.33;100884.27;1782879;79;21075;-65
2021/10/27 06:09:14;;;;;;;37.55;17.85;;;;;;;6.25;89.93;100880.14;1788781;78;21105;-66
2021/10/27 06:11:42;;;;;;;32.55;16.55;;;;;;;6.60;88.18;100884.67;1778934;78;22175;-65
2021/10/27 06:14:09;;;;;;;27.93;14.95;;;;;;;6.94;85.80;100883.47;1779537;78;21130;-65
2021/10/27 06:16:36;;;;;;;30.27;16.80;;;;;;;7.11;83.27;100871.98;1779527;78;21883;-66
2021/10/27 06:19:02;;;;;;;30.23;15.88;;;;;;;7.30;82.87;100870.87;1785306;78;21058;-65
2021/10/27 06:21:29;;;;;;;34.98;17.30;;;;;;;7.53;81.79;100861.41;1795996;78;21086;-65
2021/10/27 06:23:56;;;;;;;32.73;16.10;;;;;;;7.74;80.46;100859.40;1776710;78;21079;-66
2021/10/27 06:26:23;;;;;;;29.90;16.30;;;;;;;8.06;79.86;100861.56;1772007;78;21110;-65
2021/10/27 06:29:08;;;;;;;29.45;15.32;;;;;;;8.42;77.93;100875.05;1768534;80;20996;-66
2021/10/27 06:31:44;;;;;;;28.62;15.55;;;;;;;8.61;76.94;100875.14;1767781;80;21016;-67
2021/10/27 06:47:25;;;;;;;39.80;16.65;;;;;;;9.69;70.80;100892.81;1775072;78;21075;-66
2021/10/27 06:49:50;;;;;;;45.35;17.80;;;;;;;10.14;70.19;100887.87;1785026;78;21099;-66
2021/10/27 06:52:17;;;;;;;36.58;16.73;;;;;;;10.51;69.66;100889.20;1771982;78;21544;-66
2021/10/27 06:54:50;;;;;;;46.30;16.77;;;;;;;10.80;67.20;100890.25;1776834;79;21009;-65
2021/10/27 06:57:17;;;;;;;40.50;16.75;;;;;;;11.25;66.95;100874.09;1777687;79;21049;-65
2021/10/27 06:59:44;;;;;;;35.70;17.20;;;;;;;11.25;66.95;100874.09;1782447;79;21082;-67
2021/10/27 07:02:34;;;;;;;35.63;16.15;;;;;;;11.53;64.94;100869.78;1783238;79;21082;-66
2021/10/27 07:15:32;;;;;;;33.98;16.30;;;;;;;12.04;58.97;100851.58;1774739;80;21058;-66
2021/10/27 07:17:56;;;;;;;40.38;17.77;;;;;;;12.00;58.61;100847.30;1763892;81;21146;-67
2021/10/27 07:20:24;;;;;;;43.30;17.95;;;;;;;12.00;59.39;100851.27;1795269;79;21078;-67
2021/10/27 07:22:53;;;;;;;43.25;17.12;;;;;;;12.16;58.77;100848.54;1775600;80;21117;-65
2021/10/27 07:25:19;;;;;;;36.83;16.30;;;;;;;12.17;58.62;100847.64;1780146;80;21819;-64
2021/10/27 07:27:46;;;;;;;38.30;17.60;;;;;;;12.18;59.65;100845.40;1770762;80;21034;-65
2021/10/27 07:30:13;;;;;;;41.33;16.27;;;;;;;12.38;57.87;100850.89;1770927;80;21121;-65
2021/10/27 07:34:59;;;;;;;35.83;16.30;;;;;;;12.86;57.72;100831.22;1788942;79;23218;-66
2021/10/27 07:43:02;;;;;;;48.78;18.67;;;;;;;13.67;53.29;100830.91;1758576;81;21490;-66
2021/10/27 07:45:27;;;;;;;49.90;19.02;;;;;;;13.98;52.39;100824.41;1759049;81;21021;-67
2021/10/27 07:47:54;;;;;;;49.58;20.02;;;;;;;14.16;51.46;100822.80;1760046;80;21024;-66
2021/10/27 07:50:23;;;;;;;39.58;17.85;;;;;;;14.32;51.20;100815.94;1785487;80;21531;-66
2021/10/27 07:52:50;;;;;;;41.50;18.40;;;;;;;14.36;51.56;100822.84;1789733;80;21112;-66
2021/10/27 07:55:16;;;;;;;38.98;17.70;;;;;;;14.04;54.00;100827.67;1790331;80;21051;-65
2021/10/27 07:57:45;;;;;;;49.73;19.75;;;;;;;14.03;51.90;100831.69;1790115;80;21020;-65
2021/10/27 08:00:16;;;;;;;41.40;16.67;;;;;;;14.23;51.28;100822.47;1790009;80;21024;-66
2021/10/27 08:02:48;;;;;;;30.68;15.50;;;;;;;14.26;48.36;100821.48;1778867;80;20985;-67
2021/10/27 08:05:14;;;;;;;32.35;16.07;;;;;;;14.14;52.20;100825.97;1769146;80;22166;-68
2021/10/27 08:07:48;;;;;;;32.08;16.73;;;;;;;14.01;48.74;100831.77;1759057;81;21043;-66
2021/10/27 08:10:17;;;;;;;34.83;16.80;;;;;;;14.39;48.50;100834.63;1759249;81;21000;-68
2021/10/27 08:12:43;;;;;;;36.33;16.25;;;;;;;14.97;47.82;100837.92;1758938;81;21463;-68
2021/10/27 08:15:11;;;;;;;31.75;17.02;;;;;;;15.39;44.53;100825.45;1758381;80;21048;-65
2021/10/27 08:17:41;;;;;;;29.37;15.13;;;;;;;15.53;44.44;100815.94;1725192;83;21132;-65
2021/10/27 08:20:09;;;;;;;23.83;14.93;;;;;;;15.94;44.10;100812.26;1694828;83;22171;-67
2021/10/27 08:22:37;;;;;;;29.75;14.87;;;;;;;16.45;43.01;100807.98;1725180;83;21041;-67
2021/10/27 08:25:08;;;;;;;29.10;15.23;;;;;;;16.79;39.91;100808.91;1708126;82;21005;-67
2021/10/27 08:27:37;;;;;;;24.60;15.03;;;;;;;16.75;40.20;100814.84;1708548;84;21556;-67
2021/10/27 08:30:08;;;;;;;29.80;14.45;;;;;;;16.80;40.27;100811.98;1727030;82;21100;-66
2021/10/27 08:32:44;;;;;;;24.67;14.98;;;;;;;16.60;42.26;100813.44;1736911;82;21619;-67
2021/10/27 08:35:13;;;;;;;26.87;15.68;;;;;;;16.58;43.83;100822.34;1703715;83;21657;-68
2021/10/27 08:37:46;;;;;;;26.27;13.98;;;;;;;16.90;40.60;100811.02;1701417;83;21583;-67
2021/10/27 08:40:16;;;;;;;34.03;15.20;;;;;;;16.76;42.97;100817.03;1774934;80;21016;-67
2021/10/27 08:42:43;;;;;;;31.42;15.35;;;;;;;16.29;40.53;100815.01;1758913;80;21053;-67
2021/10/27 08:45:09;;;;;;;40.00;16.37;;;;;;;16.21;41.20;100823.81;1778773;80;21059;-68
2021/10/27 08:47:40;;;;;;;50.20;19.35;;;;;;;15.86;41.03;100820.61;1778718;80;21077;-66
2021/10/27 08:50:10;;;;;;;30.92;15.70;;;;;;;15.56;41.50;100816.73;1773038;80;21048;-67
2021/10/27 08:52:39;;;;;;;36.90;18.32;;;;;;;15.59;42.66;100817.43;1755646;80;20962;-66
2021/10/27 08:55:07;;;;;;;41.37;19.27;;;;;;;16.11;42.29;100822.09;1719128;82;21159;-68
2021/10/27 08:57:35;;;;;;;32.78;16.07;;;;;;;16.58;40.40;100819.69;1749212;80;21116;-66
2021/10/27 10:06:32;;;;;;;32.15;16.50;;;;;;;13.93;46.77;100808.70;1768989;80;21084;-68
2021/10/27 10:08:59;;;;;;;25.77;15.35;;;;;;;13.69;46.70;100807.01;1778807;80;21013;-67
2021/10/27 10:11:28;;;;;;;28.60;15.58;;;;;;;13.50;46.97;100807.72;1725977;82;20997;-67
2021/10/27 10:13:56;;;;;;;33.65;17.15;;;;;;;13.46;47.42;100807.47;1747480;82;21495;-67
2021/10/27 10:16:23;;;;;;;25.48;15.80;;;;;;;13.42;46.65;100807.17;1747673;82;21150;-68
2021/10/27 10:18:50;;;;;;;35.90;18.20;;;;;;;13.32;47.20;100811.06;1747766;82;21004;-69
2021/10/27 10:21:26;;;;;;;24.75;16.12;;;;;;;13.30;48.05;100807.64;1760788;80;21049;-67
2021/10/27 10:23:50;;;;;;;29.63;15.68;;;;;;;13.38;48.60;100802.91;1739831;80;21080;-68
2021/10/27 10:26:30;;;;;;;29.60;15.55;;;;;;;13.48;47.42;100799.02;1729633;79;21032;-67
2021/10/27 10:28:59;;;;;;;32.28;16.57;;;;;;;13.54;47.10;100801.40;1765651;80;21075;-68
2021/10/27 10:31:32;;;;;;;34.80;17.27;;;;;;;13.51;47.46;100793.59;1760130;80;21019;-68
2021/10/27 10:34:04;;;;;;;35.15;16.25;;;;;;;13.43;47.78;100795.66;1686580;83;21638;-67
2021/10/27 10:36:31;;;;;;;26.17;13.83;;;;;;;13.35;50.62;100791.13;1698297;83;21062;-70
2021/10/27 10:39:24;;;;;;;33.90;16.85;;;;;;;13.28;48.35;100800.22;1767209;80;21020;-68
2021/10/27 10:58:27;;;;;;;30.02;15.85;;;;;;;12.64;52.79;100796.30;1777415;79;21062;-67
2021/10/27 11:26:55;;;;;;;33.70;18.05;;;;;;;11.78;57.06;100801.77;1739974;80;21131;-70
2021/10/27 11:37:42;;;;;;;34.83;17.75;;;;;;;11.73;56.61;100801.02;1777644;80;21172;-73
2021/10/27 11:40:13;;;;;;;33.85;18.50;;;;;;;11.72;56.36;100801.95;1777351;80;21540;-69
2021/10/27 11:42:48;;;;;;;31.15;18.95;;;;;;;11.61;54.71;100801.41;1775976;80;20977;-70
2021/10/27 11:48:07;;;;;;;36.50;20.08;;;;;;;11.62;55.93;100797.84;1777618;80;21025;-69
2021/10/27 11:50:34;;;;;;;30.60;17.48;;;;;;;11.71;55.79;100798.88;1778157;80;22083;-69
2021/10/27 11:53:03;;;;;;;42.05;19.02;;;;;;;11.80;55.56;100807.86;1777636;80;21519;-69
2021/10/27 11:55:33;;;;;;;29.37;18.05;;;;;;;11.90;55.66;100804.50;1778446;80;20997;-70
2021/10/27 11:57:59;;;;;;;35.23;18.30;;;;;;;12.01;56.53;100808.09;1775939;79;21524;-70
2021/10/27 12:00:34;;;;;;;33.90;18.42;;;;;;;12.15;57.57;100812.50;1776545;80;21214;-71
2021/10/27 12:05:50;;;;;;;35.98;18.98;;;;;;;12.26;56.32;100813.02;1777525;80;21049;-69
2021/10/27 12:11:32;;;;;;;37.85;21.45;;;;;;;12.19;55.41;100816.74;1778655;80;21539;-72
2021/10/27 12:13:28;;;;;;;38.48;21.60;;;;;;;12.15;55.88;100814.67;1730986;80;21053;-70
2021/10/27 12:18:26;;;;;;;32.40;21.25;;;;;;;12.17;55.67;100824.73;1781389;80;21105;-71
2021/10/27 12:20:56;;;;;;;33.23;19.40;;;;;;;12.20;56.37;100818.48;1781421;80;21135;-70
2021/10/27 12:23:27;;;;;;;34.83;21.15;;;;;;;12.23;56.12;100818.38;1780618;80;21037;-70
2021/10/27 12:26:16;;;;;;;;;;;;;;;12.24;56.17;100820.55;1781047;80;21013;-71
2021/10/27 12:28:37;;;;;;;36.63;20.43;;;;;;;12.23;55.79;100828.08;1776447;80;21536;-71
2021/10/27 12:31:23;;;;;;;40.23;21.00;;;;;;;12.11;58.50;100818.79;1778086;80;20986;-69
2021/10/27 12:33:50;;;;;;;44.45;23.02;;;;;;;12.04;58.04;100822.55;1777921;80;21025;-70
2021/10/27 12:36:30;;;;;;;40.65;22.87;;;;;;;11.98;58.63;100820.09;1777941;80;21088;-70
2021/10/27 12:39:16;;;;;;;42.33;23.77;;;;;;;11.95;58.63;100828.50;1774562;80;21631;-69
2021/10/27 12:41:45;;;;;;;45.58;23.73;;;;;;;11.92;57.87;100824.66;1747459;82;21490;-71
2021/10/27 12:44:24;;;;;;;41.15;24.12;;;;;;;11.89;58.06;100823.87;1747469;82;21320;-71
2021/10/27 12:47:15;;;;;;;41.35;24.98;;;;;;;11.82;58.21;100824.48;1747801;82;21032;-80
2021/10/27 12:49:45;;;;;;;38.45;20.15;;;;;;;11.82;59.90;100817.89;1748064;82;21595;-80
2021/10/27 12:52:29;;;;;;;43.10;23.05;;;;;;;11.81;60.40;100821.45;1748114;82;21032;-81
2021/10/27 12:55:26;;;;;;;38.42;23.32;;;;;;;11.77;60.49;100822.45;1749456;80;21593;-78
2021/10/27 12:58:04;;;;;;;33.25;21.02;;;;;;;11.65;60.95;100817.09;1744857;80;21488;-80
2021/10/27 13:00:54;;;;;;;37.33;21.52;;;;;;;11.50;60.95;100822.40;1755628;80;21040;-80
2021/10/27 13:09:30;;;;;;;30.97;17.05;;;;;;;11.29;65.94;100846.73;1763601;80;21964;-80
2021/10/27 13:20:22;;;;;;;34.25;18.07;;;;;;;11.06;67.01;100842.11;1750453;82;21346;-80
2021/10/27 13:22:50;;;;;;;32.33;18.12;;;;;;;11.08;70.05;100848.20;1747543;82;21063;-82
2021/10/27 13:30:55;;;;;;;33.63;18.95;;;;;;;10.81;67.76;100860.35;1773505;80;21088;-83
2021/10/27 13:33:22;;;;;;;41.80;20.40;;;;;;;10.74;67.40;100862.73;1700018;83;21150;-84
2021/10/27 13:35:49;;;;;;;31.45;18.23;;;;;;;10.66;68.05;100872.17;1698267;83;21073;-82
2021/10/27 13:38:17;;;;;;;26.48;14.00;;;;;;;10.59;68.66;100867.96;1703201;83;21603;-82
2021/10/27 13:40:46;;;;;;;36.80;17.95;;;;;;;10.51;69.93;100878.66;1720177;82;21061;-82
2021/10/27 13:43:29;;;;;;;34.15;18.42;;;;;;;10.48;69.99;100876.12;1731561;82;21089;-82
2021/10/27 14:05:57;;;;;;;39.05;18.42;;;;;;;10.08;70.38;100895.47;1728521;82;21624;-82
2021/10/27 14:07:25;;;;;;;44.90;20.70;;;;;;;9.88;72.36;100908.60;1707412;82;21040;-83
2021/10/27 14:09:57;;;;;;;37.20;18.75;;;;;;;9.84;72.89;100909.56;1714348;83;22048;-82
2021/10/27 14:12:27;;;;;;;39.63;20.10;;;;;;;9.78;72.26;100908.86;1726721;82;21096;-82
2021/10/27 14:17:49;;;;;;;54.35;27.50;;;;;;;9.67;72.95;100916.96;1731600;82;21029;-83
2021/10/27 14:39:24;;;;;;;44.83;22.50;;;;;;;9.39;76.89;100949.06;1698529;83;21021;-81
2021/10/27 14:47:23;;;;;;;36.60;17.67;;;;;;;9.36;76.65;100950.45;1721489;83;21082;-81
2021/10/27 15:19:57;;;;;;;36.77;17.75;;;;;;;8.73;82.29;100966.43;1747469;82;21054;-83
2021/10/27 15:22:38;;;;;;;37.83;19.30;;;;;;;8.73;81.60;100969.91;1753038;80;21129;-83
2021/10/27 15:27:47;;;;;;;35.00;19.60;;;;;;;8.70;81.22;100969.98;1705783;83;21550;-82
2021/10/27 15:35:34;;;;;;;29.98;17.55;;;;;;;8.65;82.62;100962.63;1784029;80;20978;-79
2021/10/27 15:40:59;;;;;;;34.45;18.15;;;;;;;8.71;84.05;100976.09;1773752;80;21056;-84
2021/10/27 15:43:29;;;;;;;33.05;17.60;;;;;;;8.73;83.71;100984.36;1771382;80;21056;-84
2021/10/27 15:51:18;;;;;;;29.57;15.95;;;;;;;8.77;82.32;100980.80;1757051;80;21546;-84
2021/10/27 15:53:45;;;;;;;30.82;16.02;;;;;;;8.79;82.82;100987.36;1784797;80;20985;-83
2021/10/27 15:56:12;;;;;;;29.65;15.25;;;;;;;8.78;83.05;100985.60;1776780;80;21058;-84